Time;durP1;ratioP1;P1;durP2;ratioP2;P2;SDS_P1;SDS_P2;PMS_P1;PMS_P2;Temp;Humidity;BMP_temperature;BMP_pressure;BME280_temperature;BME280_humidity;BME280_pressure;Samples;Min_cycle;Max_cycle;Signal;HPM_P1;HPM_P2
2024/01/06 00:02:18;;;;;;;;;;;;;;;;;;5135956;28;19923;-40
2024/01/06 00:04:43;;;;;;;;;;;;;;;;;;5135588;28;20394;-42
2024/01/06 00:07:09;;;;;;;;;;;;;;;;;;5135644;28;20421;-40
2024/01/06 00:09:34;;;;;;;;;;;;;;;;;;5135516;28;19927;-40
2024/01/06 00:12:01;;;;;;;;;;;;;;;;;;5135795;28;19923;-41
2024/01/06 00:14:27;;;;;;;;;;;;;;;;;;5135755;28;19957;-40
2024/01/06 00:16:52;;;;;;;;;;;;;;;;;;5135375;28;19923;-41
2024/01/06 00:19:18;;;;;;;;;;;;;;;;;;5135575;28;19975;-41
2024/01/06 00:21:43;;;;;;;;;;;;;;;;;;5133652;28;19930;-40
2024/01/06 00:24:09;;;;;;;;;;;;;;;;;;5135638;28;20039;-43
2024/01/06 00:26:34;;;;;;;;;;;;;;;;;;5135383;28;19927;-42
2024/01/06 00:29:00;;;;;;;;;;;;;;;;;;5135575;28;19931;-41
2024/01/06 00:31:25;;;;;;;;;;;;;;;;;;5135844;28;20006;-42
2024/01/06 00:33:51;;;;;;;;;;;;;;;;;;5135013;28;19924;-41
2024/01/06 00:36:16;;;;;;;;;;;;;;;;;;5135302;27;20023;-39
2024/01/06 00:38:42;;;;;;;;;;;;;;;;;;5135159;28;20060;-41
2024/01/06 00:41:07;;;;;;;;;;;;;;;;;;5134751;28;19928;-41
2024/01/06 00:43:33;;;;;;;;;;;;;;;;;;5135394;28;20355;-40
2024/01/06 00:45:58;;;;;;;;;;;;;;;;;;5135062;28;19976;-40
2024/01/06 00:48:23;;;;;;;;;;;;;;;;;;5135159;28;19931;-40
2024/01/06 00:50:49;;;;;;;;;;;;;;;;;;5135138;28;19924;-40
2024/01/06 00:53:14;;;;;;;;;;;;;;;;;;5134585;27;20011;-41
2024/01/06 00:55:40;;;;;;;;;;;;;;;;;;5135118;28;20001;-40
2024/01/06 00:58:05;;;;;;;;;;;;;;;;;;5135176;28;19927;-40
2024/01/06 01:00:31;;;;;;;;;;;;;;;;;;5135030;28;19923;-40
2024/01/06 01:02:56;;;;;;;;;;;;;;;;;;5135065;28;20006;-40
2024/01/06 01:05:22;;;;;;;;;;;;;;;;;;5135162;27;19931;-41
2024/01/06 01:07:47;;;;;;;;;;;;;;;;;;5134747;28;19980;-42
2024/01/06 01:10:13;;;;;;;;;;;;;;;;;;5134614;28;19923;-40
2024/01/06 01:12:39;;;;;;;;;;;;;;;;;;5134917;28;19966;-43
2024/01/06 01:15:04;;;;;;;;;;;;;;;;;;5134231;27;19947;-41
2024/01/06 01:17:30;;;;;;;;;;;;;;;;;;5134654;28;20415;-40
2024/01/06 01:19:55;;;;;;;;;;;;;;;;;;5134646;28;20306;-42
2024/01/06 01:22:21;;;;;;;;;;;;;;;;;;5134227;28;19977;-41
2024/01/06 01:24:46;;;;;;;;;;;;;;;;;;5134758;28;19950;-42
2024/01/06 01:27:11;;;;;;;;;;;;;;;;;;5134087;28;20011;-41
2024/01/06 01:29:37;;;;;;;;;;;;;;;;;;5134647;27;19924;-42
2024/01/06 01:32:02;;;;;;;;;;;;;;;;;;5134591;28;19924;-42
2024/01/06 01:34:28;;;;;;;;;;;;;;;;;;5134125;28;19971;-41
2024/01/06 01:36:54;;;;;;;;;;;;;;;;;;5134057;27;19967;-43
2024/01/06 01:39:19;;;;;;;;;;;;;;;;;;5133894;28;20034;-42
2024/01/06 01:41:45;;;;;;;;;;;;;;;;;;5133708;28;19923;-41
2024/01/06 01:44:10;;;;;;;;;;;;;;;;;;5133777;28;20109;-39
2024/01/06 01:46:35;;;;;;;;;;;;;;;;;;5133578;28;19974;-41
2024/01/06 01:49:01;;;;;;;;;;;;;;;;;;5133501;28;19924;-41
2024/01/06 01:51:26;;;;;;;;;;;;;;;;;;5133812;28;19972;-40
2024/01/06 01:53:52;;;;;;;;;;;;;;;;;;5134300;28;19965;-40
2024/01/06 01:56:17;;;;;;;;;;;;;;;;;;5133348;28;19953;-40
2024/01/06 01:58:43;;;;;;;;;;;;;;;;;;5133833;28;20063;-41
2024/01/06 02:01:08;;;;;;;;;;;;;;;;;;5134056;28;19935;-40
2024/01/06 02:03:34;;;;;;;;;;;;;;;;;;5134179;28;19931;-43
2024/01/06 02:05:59;;;;;;;;;;;;;;;;;;5133271;27;19930;-40
2024/01/06 02:08:25;;;;;;;;;;;;;;;;;;5133769;28;19969;-40
2024/01/06 02:10:50;;;;;;;;;;;;;;;;;;5133195;28;19945;-43
2024/01/06 02:13:16;;;;;;;;;;;;;;;;;;5133803;28;19927;-41
2024/01/06 02:15:41;;;;;;;;;;;;;;;;;;5133204;28;19966;-41
2024/01/06 02:18:07;;;;;;;;;;;;;;;;;;5133778;28;19924;-40
2024/01/06 02:20:33;;;;;;;;;;;;;;;;;;5133495;28;19929;-40
2024/01/06 02:23:00;;;;;;;;;;;;;;;;;;5133668;28;20374;-41
2024/01/06 02:25:25;;;;;;;;;;;;;;;;;;5133473;28;19923;-40
2024/01/06 02:27:51;;;;;;;;;;;;;;;;;;5133484;28;19982;-43
2024/01/06 02:30:16;;;;;;;;;;;;;;;;;;5133468;28;19930;-40
2024/01/06 02:32:42;;;;;;;;;;;;;;;;;;5133762;28;19923;-42
2024/01/06 02:35:07;;;;;;;;;;;;;;;;;;5133585;27;20031;-41
2024/01/06 02:37:33;;;;;;;;;;;;;;;;;;5133689;28;19958;-40
2024/01/06 02:39:58;;;;;;;;;;;;;;;;;;5133070;28;20044;-39
2024/01/06 02:42:25;;;;;;;;;;;;;;;;;;5133412;28;19930;-42
2024/01/06 02:44:50;;;;;;;;;;;;;;;;;;5133257;27;19924;-41
2024/01/06 02:47:16;;;;;;;;;;;;;;;;;;5132951;28;20060;-43
2024/01/06 02:49:41;;;;;;;;;;;;;;;;;;5133169;28;20387;-40
2024/01/06 02:52:07;;;;;;;;;;;;;;;;;;5133210;28;20283;-41
2024/01/06 02:54:32;;;;;;;;;;;;;;;;;;5133372;28;20359;-40
2024/01/06 02:56:58;;;;;;;;;;;;;;;;;;5132776;28;19924;-41
2024/01/06 02:59:23;;;;;;;;;;;;;;;;;;5132715;28;20064;-40
2024/01/06 03:01:48;;;;;;;;;;;;;;;;;;5133147;28;19924;-40
2024/01/06 03:04:14;;;;;;;;;;;;;;;;;;5133368;28;20359;-40
2024/01/06 03:06:39;;;;;;;;;;;;;;;;;;5133162;28;19963;-40
2024/01/06 03:09:05;;;;;;;;;;;;;;;;;;5132518;28;19928;-40
2024/01/06 03:11:30;;;;;;;;;;;;;;;;;;5132227;28;19927;-39
2024/01/06 03:13:56;;;;;;;;;;;;;;;;;;5132568;28;19923;-42
2024/01/06 03:16:21;;;;;;;;;;;;;;;;;;5132662;27;19934;-41
2024/01/06 03:18:47;;;;;;;;;;;;;;;;;;5136162;28;19931;-40
2024/01/06 03:21:12;;;;;;;;;;;;;;;;;;5135998;28;20260;-40
2024/01/06 03:23:38;;;;;;;;;;;;;;;;;;5135816;28;19962;-42
2024/01/06 03:26:03;;;;;;;;;;;;;;;;;;5135469;28;19992;-41
2024/01/06 03:28:29;;;;;;;;;;;;;;;;;;5136390;28;20442;-41
2024/01/06 03:30:54;;;;;;;;;;;;;;;;;;5135236;28;20426;-40
2024/01/06 03:33:20;;;;;;;;;;;;;;;;;;5136623;28;19923;-40
2024/01/06 03:35:45;;;;;;;;;;;;;;;;;;5136502;27;20006;-40
2024/01/06 03:38:11;;;;;;;;;;;;;;;;;;5136410;28;19931;-40
2024/01/06 03:40:36;;;;;;;;;;;;;;;;;;5136100;28;20026;-42
2024/01/06 03:43:02;;;;;;;;;;;;;;;;;;5136165;28;19923;-42
2024/01/06 03:45:27;;;;;;;;;;;;;;;;;;5135680;27;19931;-40
2024/01/06 03:47:53;;;;;;;;;;;;;;;;;;5136265;28;20379;-40
2024/01/06 03:50:18;;;;;;;;;;;;;;;;;;5135927;28;19923;-41
2024/01/06 03:52:44;;;;;;;;;;;;;;;;;;5136268;28;20257;-40
2024/01/06 03:55:09;;;;;;;;;;;;;;;;;;5136087;28;19927;-43
2024/01/06 03:57:35;;;;;;;;;;;;;;;;;;5135980;28;20006;-41
2024/01/06 04:00:00;;;;;;;;;;;;;;;;;;5135468;28;20382;-40
2024/01/06 04:02:26;;;;;;;;;;;;;;;;;;5135944;28;20284;-40
2024/01/06 04:04:51;;;;;;;;;;;;;;;;;;5136037;28;20391;-41
2024/01/06 04:07:16;;;;;;;;;;;;;;;;;;5136170;28;20271;-40
2024/01/06 04:09:42;;;;;;;;;;;;;;;;;;5135697;28;19966;-40
2024/01/06 04:12:07;;;;;;;;;;;;;;;;;;5135888;28;20401;-40
2024/01/06 04:14:33;;;;;;;;;;;;;;;;;;5135697;28;19927;-41
2024/01/06 04:16:58;;;;;;;;;;;;;;;;;;5135336;28;19988;-41
2024/01/06 04:19:24;;;;;;;;;;;;;;;;;;5135469;28;19970;-40
2024/01/06 04:21:50;;;;;;;;;;;;;;;;;;5135444;28;19924;-40
2024/01/06 04:24:15;;;;;;;;;;;;;;;;;;5135355;28;19963;-40
2024/01/06 04:26:44;;;;;;;;;;;;;;;;;;5135437;28;20416;-41
2024/01/06 04:29:10;;;;;;;;;;;;;;;;;;5134588;27;19973;-43
2024/01/06 04:31:35;;;;;;;;;;;;;;;;;;5134716;28;19966;-40
2024/01/06 04:34:01;;;;;;;;;;;;;;;;;;5134798;28;19924;-41
2024/01/06 04:36:26;;;;;;;;;;;;;;;;;;5134895;28;19984;-41
2024/01/06 04:38:52;;;;;;;;;;;;;;;;;;5134954;28;20332;-42
2024/01/06 04:41:17;;;;;;;;;;;;;;;;;;5134816;28;19924;-41
2024/01/06 04:43:43;;;;;;;;;;;;;;;;;;5135189;28;19923;-40
2024/01/06 04:46:08;;;;;;;;;;;;;;;;;;5134553;28;19923;-40
2024/01/06 04:48:34;;;;;;;;;;;;;;;;;;5135119;28;19966;-40
2024/01/06 04:50:59;;;;;;;;;;;;;;;;;;5134959;28;20006;-43
2024/01/06 04:53:25;;;;;;;;;;;;;;;;;;5135232;28;19924;-42
2024/01/06 04:55:50;;;;;;;;;;;;;;;;;;5135134;28;20006;-40
2024/01/06 04:58:16;;;;;;;;;;;;;;;;;;5135001;28;19923;-43
2024/01/06 05:00:41;;;;;;;;;;;;;;;;;;5134505;28;20052;-40
2024/01/06 05:03:07;;;;;;;;;;;;;;;;;;5134983;28;20062;-41
2024/01/06 05:05:32;;;;;;;;;;;;;;;;;;5134813;28;19967;-41
2024/01/06 05:07:59;;;;;;;;;;;;;;;;;;5135129;27;20003;-40
2024/01/06 05:10:24;;;;;;;;;;;;;;;;;;5134646;27;19934;-40
2024/01/06 05:12:49;;;;;;;;;;;;;;;;;;5134615;28;19923;-40
2024/01/06 05:15:15;;;;;;;;;;;;;;;;;;5133863;28;19978;-42
2024/01/06 05:17:40;;;;;;;;;;;;;;;;;;5134168;28;19923;-43
2024/01/06 05:20:06;;;;;;;;;;;;;;;;;;5134234;28;19959;-41
2024/01/06 05:22:32;;;;;;;;;;;;;;;;;;5133986;28;19923;-40
2024/01/06 05:24:57;;;;;;;;;;;;;;;;;;5134068;28;19962;-41
2024/01/06 05:27:23;;;;;;;;;;;;;;;;;;5134017;28;19930;-41
2024/01/06 05:29:49;;;;;;;;;;;;;;;;;;5134029;28;20447;-41
2024/01/06 05:32:14;;;;;;;;;;;;;;;;;;5134023;28;19935;-45
2024/01/06 05:34:39;;;;;;;;;;;;;;;;;;5133831;28;19954;-41
2024/01/06 05:37:05;;;;;;;;;;;;;;;;;;5134142;28;20023;-41
2024/01/06 05:39:31;;;;;;;;;;;;;;;;;;5133208;27;19930;-41
2024/01/06 05:41:56;;;;;;;;;;;;;;;;;;5133295;28;20026;-43
2024/01/06 05:44:21;;;;;;;;;;;;;;;;;;5134486;28;19928;-42
2024/01/06 05:46:47;;;;;;;;;;;;;;;;;;5133853;28;20014;-43
2024/01/06 05:49:12;;;;;;;;;;;;;;;;;;5134217;28;19968;-42
2024/01/06 05:51:38;;;;;;;;;;;;;;;;;;5133971;28;19976;-41
2024/01/06 05:54:03;;;;;;;;;;;;;;;;;;5134019;28;19923;-41
2024/01/06 05:56:29;;;;;;;;;;;;;;;;;;5134162;28;20355;-40
2024/01/06 05:58:54;;;;;;;;;;;;;;;;;;5133886;28;19976;-40
2024/01/06 06:01:20;;;;;;;;;;;;;;;;;;5133988;28;20359;-40
2024/01/06 06:03:49;;;;;;;;;;;;;;;;;;5133713;28;19927;-42
2024/01/06 06:06:15;;;;;;;;;;;;;;;;;;5134222;28;20007;-42
2024/01/06 06:08:41;;;;;;;;;;;;;;;;;;5134158;28;19924;-42
2024/01/06 06:11:10;;;;;;;;;;;;;;;;;;5133614;28;19962;-40
2024/01/06 06:13:36;;;;;;;;;;;;;;;;;;5134040;28;19923;-41
2024/01/06 06:16:02;;;;;;;;;;;;;;;;;;5133500;28;20379;-43
2024/01/06 06:18:27;;;;;;;;;;;;;;;;;;5133831;28;19931;-41
2024/01/06 06:20:53;;;;;;;;;;;;;;;;;;5133404;28;20021;-40
2024/01/06 06:23:18;;;;;;;;;;;;;;;;;;5133398;28;20442;-40
2024/01/06 06:25:44;;;;;;;;;;;;;;;;;;5133714;28;20364;-42
2024/01/06 06:28:09;;;;;;;;;;;;;;;;;;5133761;28;19927;-41
2024/01/06 06:30:35;;;;;;;;;;;;;;;;;;5133303;28;19923;-41
2024/01/06 06:33:00;;;;;;;;;;;;;;;;;;5133582;28;19927;-42
2024/01/06 06:35:26;;;;;;;;;;;;;;;;;;5132960;28;19923;-43
2024/01/06 06:37:51;;;;;;;;;;;;;;;;;;5133535;28;19950;-41
2024/01/06 06:40:17;;;;;;;;;;;;;;;;;;5133469;28;19934;-41
2024/01/06 06:42:42;;;;;;;;;;;;;;;;;;5133507;28;20434;-41
2024/01/06 06:45:08;;;;;;;;;;;;;;;;;;5133338;28;19934;-43
2024/01/06 06:47:33;;;;;;;;;;;;;;;;;;5133416;28;19946;-45
2024/01/06 06:49:59;;;;;;;;;;;;;;;;;;5133012;28;20007;-40
2024/01/06 06:52:24;;;;;;;;;;;;;;;;;;5132728;27;20401;-42
2024/01/06 06:54:51;;;;;;;;;;;;;;;;;;5133388;28;19931;-41
2024/01/06 06:57:17;;;;;;;;;;;;;;;;;;5133300;28;20359;-43
2024/01/06 06:59:43;;;;;;;;;;;;;;;;;;5133344;28;19969;-42
2024/01/06 07:02:09;;;;;;;;;;;;;;;;;;5133197;28;19947;-40
2024/01/06 07:04:34;;;;;;;;;;;;;;;;;;5132928;28;19931;-42
2024/01/06 07:07:00;;;;;;;;;;;;;;;;;;5133206;28;19954;-40
2024/01/06 07:09:25;;;;;;;;;;;;;;;;;;5133132;28;19923;-41
2024/01/06 07:11:51;;;;;;;;;;;;;;;;;;5133025;28;20011;-40
2024/01/06 07:14:16;;;;;;;;;;;;;;;;;;5133225;28;20418;-43
2024/01/06 07:16:42;;;;;;;;;;;;;;;;;;5132308;28;20394;-41
2024/01/06 07:19:07;;;;;;;;;;;;;;;;;;5132811;28;19976;-41
2024/01/06 07:21:33;;;;;;;;;;;;;;;;;;5132982;28;19924;-42
2024/01/06 07:23:58;;;;;;;;;;;;;;;;;;5132778;28;20342;-43
2024/01/06 07:26:24;;;;;;;;;;;;;;;;;;5132907;28;19923;-42
2024/01/06 07:28:49;;;;;;;;;;;;;;;;;;5132916;28;19966;-41
2024/01/06 07:31:14;;;;;;;;;;;;;;;;;;5132624;28;19923;-41
2024/01/06 07:33:40;;;;;;;;;;;;;;;;;;5132454;28;20378;-44
2024/01/06 07:36:06;;;;;;;;;;;;;;;;;;5132728;28;19950;-42
2024/01/06 07:38:31;;;;;;;;;;;;;;;;;;5132230;28;19924;-41
2024/01/06 07:40:57;;;;;;;;;;;;;;;;;;5132153;28;19980;-40
2024/01/06 07:43:22;;;;;;;;;;;;;;;;;;5132769;28;19923;-42
2024/01/06 07:45:48;;;;;;;;;;;;;;;;;;5132684;28;19970;-40
2024/01/06 07:48:15;;;;;;;;;;;;;;;;;;5132727;28;19928;-45
2024/01/06 07:53:54;;;;;;;;;;;;;;;;;;5124226;28;20369;-42
2024/01/06 07:56:20;;;;;;;;;;;;;;;;;;5132677;28;20363;-44
2024/01/06 07:58:45;;;;;;;;;;;;;;;;;;5132329;28;19974;-42
2024/01/06 08:01:11;;;;;;;;;;;;;;;;;;5131956;28;20340;-42
2024/01/06 08:03:36;;;;;;;;;;;;;;;;;;5132665;27;19924;-42
2024/01/06 08:06:02;;;;;;;;;;;;;;;;;;5132208;28;19971;-41
2024/01/06 08:08:28;;;;;;;;;;;;;;;;;;5135297;28;19931;-43
2024/01/06 08:10:53;;;;;;;;;;;;;;;;;;5134969;28;20340;-41
2024/01/06 08:13:19;;;;;;;;;;;;;;;;;;5135213;28;19923;-42
2024/01/06 08:15:44;;;;;;;;;;;;;;;;;;5134952;28;19988;-45
2024/01/06 08:18:10;;;;;;;;;;;;;;;;;;5135347;28;20419;-40
2024/01/06 08:20:35;;;;;;;;;;;;;;;;;;5135624;28;20006;-42
2024/01/06 08:23:01;;;;;;;;;;;;;;;;;;5135042;28;19982;-44
2024/01/06 08:25:27;;;;;;;;;;;;;;;;;;5135762;28;19923;-41
2024/01/06 08:27:53;;;;;;;;;;;;;;;;;;5135677;28;19923;-41
2024/01/06 08:30:19;;;;;;;;;;;;;;;;;;5135700;28;19966;-40
2024/01/06 08:32:44;;;;;;;;;;;;;;;;;;5135243;28;19976;-41
2024/01/06 08:35:10;;;;;;;;;;;;;;;;;;5135325;27;19978;-40
2024/01/06 08:37:35;;;;;;;;;;;;;;;;;;5135577;28;19973;-43
2024/01/06 08:40:01;;;;;;;;;;;;;;;;;;5134717;28;19959;-42
2024/01/06 08:42:27;;;;;;;;;;;;;;;;;;5134938;27;20132;-41
2024/01/06 08:44:52;;;;;;;;;;;;;;;;;;5135066;27;19927;-43
2024/01/06 08:47:18;;;;;;;;;;;;;;;;;;5135114;28;20349;-40
2024/01/06 08:49:43;;;;;;;;;;;;;;;;;;5135283;28;20026;-42
2024/01/06 08:52:09;;;;;;;;;;;;;;;;;;5135103;28;19923;-43
2024/01/06 08:54:35;;;;;;;;;;;;;;;;;;5135181;28;19966;-40
2024/01/06 08:57:00;;;;;;;;;;;;;;;;;;5135244;27;19924;-43
2024/01/06 08:59:26;;;;;;;;;;;;;;;;;;5135018;28;19970;-41
2024/01/06 09:01:52;;;;;;;;;;;;;;;;;;5135235;28;20456;-40
2024/01/06 09:04:18;;;;;;;;;;;;;;;;;;5135156;27;19934;-39
2024/01/06 09:06:43;;;;;;;;;;;;;;;;;;5134781;28;19923;-42
2024/01/06 09:09:09;;;;;;;;;;;;;;;;;;5134485;28;19954;-39
2024/01/06 09:11:35;;;;;;;;;;;;;;;;;;5134610;28;20430;-39
2024/01/06 09:14:01;;;;;;;;;;;;;;;;;;5134589;27;20007;-39
2024/01/06 09:16:26;;;;;;;;;;;;;;;;;;5134477;28;19923;-41
2024/01/06 09:18:51;;;;;;;;;;;;;;;;;;5134780;28;20283;-40
2024/01/06 09:21:17;;;;;;;;;;;;;;;;;;5134766;28;19970;-40
2024/01/06 09:23:42;;;;;;;;;;;;;;;;;;5134273;28;20379;-40
2024/01/06 09:26:08;;;;;;;;;;;;;;;;;;5133916;28;20006;-40
2024/01/06 09:28:33;;;;;;;;;;;;;;;;;;5133968;28;20402;-40
2024/01/06 09:30:59;;;;;;;;;;;;;;;;;;5134008;28;20385;-42
2024/01/06 09:33:24;;;;;;;;;;;;;;;;;;5133856;28;20086;-41
2024/01/06 09:35:50;;;;;;;;;;;;;;;;;;5133722;28;19924;-40
2024/01/06 09:38:17;;;;;;;;;;;;;;;;;;5134572;28;19930;-41
2024/01/06 09:40:43;;;;;;;;;;;;;;;;;;5133346;28;19931;-42
2024/01/06 09:43:09;;;;;;;;;;;;;;;;;;5133849;28;19927;-42
2024/01/06 09:45:34;;;;;;;;;;;;;;;;;;5134141;28;20382;-41
2024/01/06 09:47:59;;;;;;;;;;;;;;;;;;5134305;28;20352;-39
2024/01/06 09:50:25;;;;;;;;;;;;;;;;;;5134208;28;19970;-41
2024/01/06 09:52:55;;;;;;;;;;;;;;;;;;5134152;28;19931;-40
2024/01/06 09:55:20;;;;;;;;;;;;;;;;;;5134309;28;19923;-41
2024/01/06 09:57:46;;;;;;;;;;;;;;;;;;5134303;28;19971;-40
2024/01/06 10:00:11;;;;;;;;;;;;;;;;;;5133603;28;19967;-39
2024/01/06 10:02:37;;;;;;;;;;;;;;;;;;5134342;28;20031;-40
2024/01/06 10:05:03;;;;;;;;;;;;;;;;;;5134102;28;19923;-39
2024/01/06 10:07:29;;;;;;;;;;;;;;;;;;5134351;28;19924;-42
2024/01/06 10:09:54;;;;;;;;;;;;;;;;;;5133382;28;19972;-40
2024/01/06 10:12:20;;;;;;;;;;;;;;;;;;5133263;28;19958;-41
2024/01/06 10:14:45;;;;;;;;;;;;;;;;;;5133230;28;19958;-40
2024/01/06 10:17:11;;;;;;;;;;;;;;;;;;5133770;28;20323;-42
2024/01/06 10:19:38;;;;;;;;;;;;;;;;;;5133709;28;19923;-42
2024/01/06 10:22:04;;;;;;;;;;;;;;;;;;5133762;27;20014;-46
2024/01/06 10:24:30;;;;;;;;;;;;;;;;;;5133711;28;19923;-41
2024/01/06 10:26:55;;;;;;;;;;;;;;;;;;5133007;27;19931;-41
2024/01/06 10:29:21;;;;;;;;;;;;;;;;;;5133969;28;19970;-40
2024/01/06 10:31:46;;;;;;;;;;;;;;;;;;5132928;28;20056;-41
2024/01/06 10:34:12;;;;;;;;;;;;;;;;;;5133649;28;19983;-40
2024/01/06 10:36:38;;;;;;;;;;;;;;;;;;5133458;28;19927;-42
2024/01/06 10:39:04;;;;;;;;;;;;;;;;;;5133304;28;19927;-40
2024/01/06 10:41:29;;;;;;;;;;;;;;;;;;5133493;28;19931;-41
2024/01/06 10:43:55;;;;;;;;;;;;;;;;;;5132801;28;19965;-42
2024/01/06 10:46:21;;;;;;;;;;;;;;;;;;5133159;27;19924;-40
2024/01/06 10:48:46;;;;;;;;;;;;;;;;;;5133229;28;19930;-41
2024/01/06 10:51:12;;;;;;;;;;;;;;;;;;5133335;28;20445;-42
2024/01/06 10:53:39;;;;;;;;;;;;;;;;;;5133308;28;19931;-41
2024/01/06 10:56:04;;;;;;;;;;;;;;;;;;5133393;27;19930;-40
2024/01/06 10:58:30;;;;;;;;;;;;;;;;;;5133470;28;19923;-42
2024/01/06 11:00:55;;;;;;;;;;;;;;;;;;5133255;28;19955;-41
2024/01/06 11:03:21;;;;;;;;;;;;;;;;;;5133356;28;19946;-39
2024/01/06 11:05:46;;;;;;;;;;;;;;;;;;5133304;28;20010;-40
2024/01/06 11:08:12;;;;;;;;;;;;;;;;;;5133408;28;20418;-40
2024/01/06 11:10:37;;;;;;;;;;;;;;;;;;5133018;28;19980;-41
2024/01/06 11:13:03;;;;;;;;;;;;;;;;;;5133164;28;20415;-39
2024/01/06 11:15:28;;;;;;;;;;;;;;;;;;5132567;28;19962;-42
2024/01/06 11:17:55;;;;;;;;;;;;;;;;;;5132974;28;20027;-41
2024/01/06 11:20:21;;;;;;;;;;;;;;;;;;5132871;27;20327;-42
2024/01/06 11:22:46;;;;;;;;;;;;;;;;;;5133016;27;20359;-40
2024/01/06 11:25:12;;;;;;;;;;;;;;;;;;5132770;28;20010;-39
2024/01/06 11:27:37;;;;;;;;;;;;;;;;;;5133036;28;20007;-39
2024/01/06 11:30:05;;;;;;;;;;;;;;;;;;5132842;28;19973;-39
2024/01/06 11:32:33;;;;;;;;;;;;;;;;;;5132957;27;20363;-40
2024/01/06 11:35:00;;;;;;;;;;;;;;;;;;5132044;27;20065;-39
2024/01/06 11:37:25;;;;;;;;;;;;;;;;;;5132544;27;19923;-40
2024/01/06 11:39:51;;;;;;;;;;;;;;;;;;5134809;28;19923;-41
2024/01/06 11:42:16;;;;;;;;;;;;;;;;;;5136620;28;20382;-40
2024/01/06 11:44:41;;;;;;;;;;;;;;;;;;5135326;28;19975;-39
2024/01/06 11:47:07;;;;;;;;;;;;;;;;;;5135722;28;19962;-41
2024/01/06 11:49:33;;;;;;;;;;;;;;;;;;5136392;28;20411;-41
2024/01/06 11:51:58;;;;;;;;;;;;;;;;;;5136254;28;19976;-41
2024/01/06 11:54:24;;;;;;;;;;;;;;;;;;5136096;28;19951;-40
2024/01/06 11:56:50;;;;;;;;;;;;;;;;;;5135769;28;20006;-39
2024/01/06 11:59:15;;;;;;;;;;;;;;;;;;5136173;28;20419;-40
2024/01/06 12:01:40;;;;;;;;;;;;;;;;;;5136287;28;20023;-40
2024/01/06 12:04:06;;;;;;;;;;;;;;;;;;5136201;28;20353;-41
2024/01/06 12:06:32;;;;;;;;;;;;;;;;;;5136041;28;19966;-39
2024/01/06 12:08:57;;;;;;;;;;;;;;;;;;5135829;28;20305;-41
2024/01/06 12:11:22;;;;;;;;;;;;;;;;;;5135415;28;20336;-41
2024/01/06 12:13:48;;;;;;;;;;;;;;;;;;5135463;28;20033;-41
2024/01/06 12:16:13;;;;;;;;;;;;;;;;;;5135036;28;20014;-41
2024/01/06 12:18:39;;;;;;;;;;;;;;;;;;5135265;28;20014;-39
2024/01/06 12:21:04;;;;;;;;;;;;;;;;;;5135212;28;19923;-40
2024/01/06 12:23:30;;;;;;;;;;;;;;;;;;5135280;28;20311;-43
2024/01/06 12:25:55;;;;;;;;;;;;;;;;;;5135024;27;19928;-41
2024/01/06 12:28:21;;;;;;;;;;;;;;;;;;5135395;28;20022;-41
2024/01/06 12:30:46;;;;;;;;;;;;;;;;;;5135617;28;20030;-44
2024/01/06 12:33:13;;;;;;;;;;;;;;;;;;5135145;27;19931;-39
2024/01/06 12:35:39;;;;;;;;;;;;;;;;;;5135043;27;20412;-41
2024/01/06 12:38:06;;;;;;;;;;;;;;;;;;5135444;28;20006;-40
2024/01/06 12:40:32;;;;;;;;;;;;;;;;;;5135061;28;19924;-40
2024/01/06 12:42:57;;;;;;;;;;;;;;;;;;5135465;28;19928;-40
2024/01/06 12:45:23;;;;;;;;;;;;;;;;;;5134770;28;20383;-40
2024/01/06 12:47:48;;;;;;;;;;;;;;;;;;5134959;28;20353;-40
2024/01/06 12:50:14;;;;;;;;;;;;;;;;;;5134681;27;19923;-41
2024/01/06 12:52:40;;;;;;;;;;;;;;;;;;5134878;28;19924;-42
2024/01/06 12:55:05;;;;;;;;;;;;;;;;;;5134606;28;19924;-39
2024/01/06 12:57:31;;;;;;;;;;;;;;;;;;5134748;28;20018;-40
2024/01/06 12:59:56;;;;;;;;;;;;;;;;;;5134661;28;19974;-41
2024/01/06 13:02:22;;;;;;;;;;;;;;;;;;5134835;28;19934;-42
2024/01/06 13:04:47;;;;;;;;;;;;;;;;;;5134550;28;20175;-40
2024/01/06 13:07:13;;;;;;;;;;;;;;;;;;5135029;28;19927;-40
2024/01/06 13:09:38;;;;;;;;;;;;;;;;;;5134493;28;19965;-41
2024/01/06 13:12:04;;;;;;;;;;;;;;;;;;5135197;28;19930;-40
2024/01/06 13:14:29;;;;;;;;;;;;;;;;;;5134891;28;20248;-40
2024/01/06 13:16:55;;;;;;;;;;;;;;;;;;5134645;28;19924;-41
2024/01/06 13:19:21;;;;;;;;;;;;;;;;;;5134856;28;19966;-40
2024/01/06 13:21:47;;;;;;;;;;;;;;;;;;5134691;28;20019;-40
2024/01/06 13:24:12;;;;;;;;;;;;;;;;;;5134843;28;19924;-39
2024/01/06 13:26:38;;;;;;;;;;;;;;;;;;5134424;28;20325;-41
2024/01/06 13:29:03;;;;;;;;;;;;;;;;;;5134305;28;20319;-39
2024/01/06 13:31:29;;;;;;;;;;;;;;;;;;5134536;28;20420;-40
2024/01/06 13:33:55;;;;;;;;;;;;;;;;;;5134821;28;19924;-43
2024/01/06 13:36:21;;;;;;;;;;;;;;;;;;5134315;28;20282;-40
2024/01/06 13:38:48;;;;;;;;;;;;;;;;;;5134259;28;19923;-40
2024/01/06 13:41:13;;;;;;;;;;;;;;;;;;5134386;28;19976;-40
2024/01/06 13:43:39;;;;;;;;;;;;;;;;;;5134250;28;19962;-39
2024/01/06 13:46:04;;;;;;;;;;;;;;;;;;5134117;28;19974;-41
2024/01/06 13:48:30;;;;;;;;;;;;;;;;;;5133825;28;19930;-40
2024/01/06 13:50:57;;;;;;;;;;;;;;;;;;5134233;28;19973;-40
2024/01/06 13:53:22;;;;;;;;;;;;;;;;;;5134276;28;19927;-40
2024/01/06 13:55:48;;;;;;;;;;;;;;;;;;5133399;28;21272;-43
2024/01/06 13:58:14;;;;;;;;;;;;;;;;;;5134265;28;19931;-40
2024/01/06 14:00:39;;;;;;;;;;;;;;;;;;5133618;27;20301;-40
2024/01/06 14:03:06;;;;;;;;;;;;;;;;;;5133650;28;19928;-40
2024/01/06 14:05:32;;;;;;;;;;;;;;;;;;5134130;28;20377;-41
2024/01/06 14:07:57;;;;;;;;;;;;;;;;;;5134258;28;19923;-41
2024/01/06 14:10:23;;;;;;;;;;;;;;;;;;5133957;28;20018;-40
2024/01/06 14:12:48;;;;;;;;;;;;;;;;;;5134199;28;20276;-43
2024/01/06 14:15:14;;;;;;;;;;;;;;;;;;5133612;28;20492;-40
2024/01/06 14:17:40;;;;;;;;;;;;;;;;;;5133588;28;20379;-40
2024/01/06 14:20:06;;;;;;;;;;;;;;;;;;5134019;28;19924;-42
2024/01/06 14:22:31;;;;;;;;;;;;;;;;;;5133795;28;20151;-39
2024/01/06 14:24:57;;;;;;;;;;;;;;;;;;5133649;28;20341;-41
2024/01/06 14:27:22;;;;;;;;;;;;;;;;;;5133680;28;19934;-40
2024/01/06 14:29:48;;;;;;;;;;;;;;;;;;5133786;28;19973;-41
2024/01/06 14:32:13;;;;;;;;;;;;;;;;;;5133773;28;19931;-40
2024/01/06 14:34:39;;;;;;;;;;;;;;;;;;5133605;28;20018;-39
2024/01/06 14:37:04;;;;;;;;;;;;;;;;;;5133505;28;20375;-41
2024/01/06 14:39:30;;;;;;;;;;;;;;;;;;5132803;28;20019;-39
2024/01/06 14:41:55;;;;;;;;;;;;;;;;;;5133808;28;19970;-42
2024/01/06 14:44:21;;;;;;;;;;;;;;;;;;5133147;28;20018;-40
2024/01/06 14:46:46;;;;;;;;;;;;;;;;;;5132576;28;19967;-41
2024/01/06 14:49:11;;;;;;;;;;;;;;;;;;5132902;28;19962;-41
2024/01/06 14:51:37;;;;;;;;;;;;;;;;;;5132649;28;19966;-41
2024/01/06 14:54:02;;;;;;;;;;;;;;;;;;5132537;28;19967;-39
2024/01/06 14:56:30;;;;;;;;;;;;;;;;;;5133384;28;20363;-41
2024/01/06 14:58:56;;;;;;;;;;;;;;;;;;5133211;28;19931;-41
2024/01/06 15:01:21;;;;;;;;;;;;;;;;;;5132869;28;19988;-41
2024/01/06 15:03:46;;;;;;;;;;;;;;;;;;5133259;28;20006;-41
2024/01/06 15:06:12;;;;;;;;;;;;;;;;;;5132775;28;19924;-41
2024/01/06 15:08:38;;;;;;;;;;;;;;;;;;5133335;28;20397;-41
2024/01/06 15:11:03;;;;;;;;;;;;;;;;;;5132870;28;19954;-40
2024/01/06 15:13:29;;;;;;;;;;;;;;;;;;5135127;27;19966;-40
2024/01/06 15:15:54;;;;;;;;;;;;;;;;;;5136536;28;19924;-41
2024/01/06 15:18:21;;;;;;;;;;;;;;;;;;5136955;28;19930;-39
2024/01/06 15:20:47;;;;;;;;;;;;;;;;;;5136781;28;19923;-40
2024/01/06 15:23:12;;;;;;;;;;;;;;;;;;5136608;28;19934;-42
2024/01/06 15:25:37;;;;;;;;;;;;;;;;;;5136784;28;19950;-41
2024/01/06 15:28:03;;;;;;;;;;;;;;;;;;5136468;28;19923;-41
2024/01/06 15:30:28;;;;;;;;;;;;;;;;;;5136715;28;20013;-41
2024/01/06 15:32:54;;;;;;;;;;;;;;;;;;5136474;28;19951;-39
2024/01/06 15:35:19;;;;;;;;;;;;;;;;;;5136532;28;20402;-39
2024/01/06 15:37:48;;;;;;;;;;;;;;;;;;5136374;28;19958;-42
2024/01/06 15:40:16;;;;;;;;;;;;;;;;;;5136103;28;20056;-39
2024/01/06 15:42:41;;;;;;;;;;;;;;;;;;5136379;27;19923;-41
2024/01/06 15:45:07;;;;;;;;;;;;;;;;;;5136152;28;19923;-39
2024/01/06 15:47:33;;;;;;;;;;;;;;;;;;5136434;28;19927;-41
2024/01/06 15:49:58;;;;;;;;;;;;;;;;;;5136120;28;19944;-42
2024/01/06 15:52:24;;;;;;;;;;;;;;;;;;5136142;28;19967;-40
2024/01/06 15:54:49;;;;;;;;;;;;;;;;;;5136055;28;20142;-39
2024/01/06 15:57:15;;;;;;;;;;;;;;;;;;5135895;28;19927;-39
2024/01/06 15:59:40;;;;;;;;;;;;;;;;;;5136147;28;20008;-39
2024/01/06 16:02:06;;;;;;;;;;;;;;;;;;5136032;28;20073;-40
2024/01/06 16:04:31;;;;;;;;;;;;;;;;;;5136133;28;20067;-43
2024/01/06 16:06:57;;;;;;;;;;;;;;;;;;5135369;28;20010;-41
2024/01/06 16:09:25;;;;;;;;;;;;;;;;;;5136111;28;20002;-39
2024/01/06 16:11:51;;;;;;;;;;;;;;;;;;5136037;28;19923;-40
2024/01/06 16:14:16;;;;;;;;;;;;;;;;;;5135067;28;20271;-40
2024/01/06 16:16:42;;;;;;;;;;;;;;;;;;5135701;28;19923;-40
2024/01/06 16:19:08;;;;;;;;;;;;;;;;;;5135891;27;19924;-42
2024/01/06 16:21:34;;;;;;;;;;;;;;;;;;5135530;27;19924;-42
2024/01/06 16:24:00;;;;;;;;;;;;;;;;;;5134929;27;19954;-42
2024/01/06 16:26:25;;;;;;;;;;;;;;;;;;5135695;27;19927;-42
2024/01/06 16:28:50;;;;;;;;;;;;;;;;;;5135260;28;19970;-41
2024/01/06 16:31:16;;;;;;;;;;;;;;;;;;5134742;28;19974;-41
2024/01/06 16:33:42;;;;;;;;;;;;;;;;;;5135131;28;20449;-39
2024/01/06 16:36:10;;;;;;;;;;;;;;;;;;5135102;27;19963;-41
2024/01/06 16:38:35;;;;;;;;;;;;;;;;;;5134958;27;20011;-39